Time;durP1;ratioP1;P1;durP2;ratioP2;P2;SDS_P1;SDS_P2;PMS_P1;PMS_P2;Temp;Humidity;BMP_temperature;BMP_pressure;BME280_temperature;BME280_humidity;BME280_pressure;Samples;Min_cycle;Max_cycle;Signal;HPM_P1;HPM_P2
2024/01/19 00:01:46;;;;;;;12.80;4.78;;;;;;;;;;5056783;28;20405;-78
2024/01/19 00:04:11;;;;;;;9.30;5.80;;;;;;;;;;5059194;28;20052;-78
2024/01/19 00:06:39;;;;;;;10.77;5.88;;;;;;;;;;5057569;28;20098;-79
2024/01/19 00:09:05;;;;;;;11.65;5.35;;;;;;;;;;5057159;28;20029;-78
2024/01/19 00:11:30;;;;;;;10.82;5.93;;;;;;;;;;5041407;28;20041;-77
2024/01/19 00:13:56;;;;;;;10.65;5.85;;;;;;;;;;5058556;28;20064;-78
2024/01/19 00:16:22;;;;;;;10.02;6.22;;;;;;;;;;5056986;28;20048;-78
2024/01/19 00:18:48;;;;;;;10.18;6.82;;;;;;;;;;5059987;28;20045;-78
2024/01/19 00:21:14;;;;;;;8.75;6.55;;;;;;;;;;5059470;28;20036;-79
2024/01/19 00:23:39;;;;;;;12.77;7.60;;;;;;;;;;5059860;28;20037;-78
2024/01/19 00:26:05;;;;;;;13.32;6.88;;;;;;;;;;5059077;28;20028;-78
2024/01/19 00:28:30;;;;;;;10.68;6.68;;;;;;;;;;5057261;28;20029;-78
2024/01/19 00:30:55;;;;;;;9.80;6.22;;;;;;;;;;5056680;28;20375;-78
2024/01/19 00:33:21;;;;;;;10.40;6.07;;;;;;;;;;5057889;28;20033;-79
2024/01/19 00:35:46;;;;;;;16.77;6.78;;;;;;;;;;5058746;28;20040;-78
2024/01/19 00:38:11;;;;;;;12.27;7.28;;;;;;;;;;5060065;28;20477;-78
2024/01/19 00:40:37;;;;;;;16.05;7.55;;;;;;;;;;5058105;28;20081;-78
2024/01/19 00:43:03;;;;;;;13.63;7.32;;;;;;;;;;5059707;28;20044;-77
2024/01/19 00:45:28;;;;;;;16.13;7.72;;;;;;;;;;5058595;28;20084;-78
2024/01/19 00:47:53;;;;;;;14.13;8.13;;;;;;;;;;5058403;28;20034;-78
2024/01/19 00:50:19;;;;;;;12.82;6.30;;;;;;;;;;5058486;28;20040;-78
2024/01/19 00:52:45;;;;;;;13.00;7.50;;;;;;;;;;5057833;28;20142;-78
2024/01/19 00:55:10;;;;;;;11.00;6.60;;;;;;;;;;5059192;28;20076;-78
2024/01/19 00:57:36;;;;;;;12.65;7.22;;;;;;;;;;5058011;28;20386;-78
2024/01/19 01:00:02;;;;;;;13.40;5.82;;;;;;;;;;5059485;28;20029;-78
2024/01/19 01:02:28;;;;;;;12.77;7.50;;;;;;;;;;5058645;28;20035;-78
2024/01/19 01:04:54;;;;;;;11.20;6.35;;;;;;;;;;5059039;28;20089;-78
2024/01/19 01:07:21;;;;;;;11.30;6.97;;;;;;;;;;5059840;28;20037;-78
2024/01/19 01:09:46;;;;;;;7.40;6.15;;;;;;;;;;5063379;28;20029;-78
2024/01/19 01:12:11;;;;;;;6.05;4.57;;;;;;;;;;5064126;28;20039;-78
2024/01/19 01:14:37;;;;;;;10.48;6.43;;;;;;;;;;5062061;28;20406;-77
2024/01/19 01:17:02;;;;;;;11.45;5.93;;;;;;;;;;5062504;28;20029;-78
2024/01/19 01:19:27;;;;;;;9.02;4.57;;;;;;;;;;5063937;28;20100;-78
2024/01/19 01:21:53;;;;;;;10.82;6.55;;;;;;;;;;5064163;28;20096;-78
2024/01/19 01:24:20;;;;;;;9.48;6.15;;;;;;;;;;5062559;28;20089;-76
2024/01/19 01:26:46;;;;;;;7.53;4.68;;;;;;;;;;5063742;28;20056;-78
2024/01/19 01:29:11;;;;;;;6.32;4.38;;;;;;;;;;5062063;28;20025;-77
2024/01/19 01:31:36;;;;;;;12.55;6.05;;;;;;;;;;5062714;28;20155;-77
2024/01/19 01:34:03;;;;;;;10.77;4.68;;;;;;;;;;5053668;28;20029;-77
2024/01/19 01:36:29;;;;;;;23.80;8.77;;;;;;;;;;5058841;28;20057;-78
2024/01/19 01:38:54;;;;;;;10.85;6.22;;;;;;;;;;5063495;28;20034;-77
2024/01/19 01:41:19;;;;;;;9.18;5.93;;;;;;;;;;5062332;28;20041;-78
2024/01/19 01:43:45;;;;;;;13.85;5.28;;;;;;;;;;5060297;28;20033;-78
2024/01/19 01:46:10;;;;;;;9.00;5.05;;;;;;;;;;5061059;28;20041;-78
2024/01/19 01:48:36;;;;;;;13.15;6.00;;;;;;;;;;5060847;28;20048;-78
2024/01/19 01:51:01;;;;;;;15.93;6.38;;;;;;;;;;5063945;28;20397;-78
2024/01/19 01:53:27;;;;;;;10.05;6.13;;;;;;;;;;5064364;28;20071;-78
2024/01/19 01:55:54;;;;;;;15.05;6.40;;;;;;;;;;5062669;28;20056;-78
2024/01/19 01:58:20;;;;;;;9.68;5.97;;;;;;;;;;5064247;28;20041;-77
2024/01/19 02:00:46;;;;;;;14.18;6.38;;;;;;;;;;5045787;28;20037;-78
2024/01/19 02:03:12;;;;;;;10.90;6.20;;;;;;;;;;5045693;28;20044;-77
2024/01/19 02:05:38;;;;;;;11.45;6.68;;;;;;;;;;5063987;28;20039;-78
2024/01/19 02:08:03;;;;;;;13.68;6.65;;;;;;;;;;5062773;28;20441;-78
2024/01/19 02:10:29;;;;;;;9.00;5.57;;;;;;;;;;5061834;28;20029;-77
2024/01/19 02:12:55;;;;;;;16.58;7.43;;;;;;;;;;5041047;28;20025;-78
2024/01/19 02:15:21;;;;;;;13.55;4.88;;;;;;;;;;5042697;28;20071;-77
2024/01/19 02:17:49;;;;;;;16.00;7.60;;;;;;;;;;5064979;28;20056;-79
2024/01/19 02:20:14;;;;;;;21.17;6.95;;;;;;;;;;5062168;28;20025;-78
2024/01/19 02:22:40;;;;;;;5.70;3.83;;;;;;;;;;5061538;28;20114;-78
2024/01/19 02:25:05;;;;;;;4.90;3.45;;;;;;;;;;5061768;28;20025;-78
2024/01/19 02:27:32;;;;;;;13.27;7.80;;;;;;;;;;5062104;28;20056;-78
2024/01/19 02:29:57;;;;;;;13.27;7.07;;;;;;;;;;5060816;28;20036;-78
2024/01/19 02:32:23;;;;;;;12.30;6.95;;;;;;;;;;5062077;28;20037;-79
2024/01/19 02:34:48;;;;;;;11.05;6.15;;;;;;;;;;5061208;28;20120;-78
2024/01/19 02:37:13;;;;;;;8.13;5.30;;;;;;;;;;5061491;28;20449;-77
2024/01/19 02:39:39;;;;;;;16.60;6.28;;;;;;;;;;5075462;28;20041;-77
2024/01/19 02:42:05;;;;;;;7.75;4.55;;;;;;;;;;5054749;28;20108;-77
2024/01/19 02:44:30;;;;;;;12.23;6.10;;;;;;;;;;4954069;28;20499;-76
2024/01/19 02:46:55;;;;;;;7.40;4.63;;;;;;;;;;5056458;28;20036;-79
2024/01/19 02:49:21;;;;;;;16.30;7.13;;;;;;;;;;5061029;28;20037;-78
2024/01/19 02:51:46;;;;;;;21.05;7.78;;;;;;;;;;5061127;28;20046;-79
2024/01/19 02:54:11;;;;;;;17.88;7.35;;;;;;;;;;5062016;28;20033;-78
2024/01/19 02:56:37;;;;;;;8.18;5.32;;;;;;;;;;5062324;28;20024;-79
2024/01/19 02:59:02;;;;;;;13.82;6.45;;;;;;;;;;5059833;28;20097;-78
2024/01/19 03:01:27;;;;;;;13.55;5.65;;;;;;;;;;5061031;28;20055;-77
2024/01/19 03:03:53;;;;;;;7.47;5.40;;;;;;;;;;5061188;28;20029;-78
2024/01/19 03:06:18;;;;;;;8.82;5.05;;;;;;;;;;5059748;28;20032;-78
2024/01/19 03:08:43;;;;;;;18.27;6.75;;;;;;;;;;5059625;28;20033;-78
2024/01/19 03:11:08;;;;;;;7.93;4.60;;;;;;;;;;5060593;28;20044;-78
2024/01/19 03:13:34;;;;;;;9.85;5.05;;;;;;;;;;5059398;28;20033;-79
2024/01/19 03:16:04;;;;;;;13.32;5.88;;;;;;;;;;5058832;28;20057;-79
2024/01/19 03:18:29;;;;;;;9.35;5.70;;;;;;;;;;5060919;28;20409;-78
2024/01/19 03:20:54;;;;;;;9.45;4.45;;;;;;;;;;5060048;28;20093;-77
2024/01/19 03:23:20;;;;;;;17.52;6.80;;;;;;;;;;5060200;28;20068;-78
2024/01/19 03:25:45;;;;;;;9.15;4.78;;;;;;;;;;5059889;28;20045;-79
2024/01/19 03:28:11;;;;;;;9.10;5.70;;;;;;;;;;5057970;28;20021;-79
2024/01/19 03:30:37;;;;;;;10.02;5.50;;;;;;;;;;5041251;28;20033;-78
2024/01/19 03:33:02;;;;;;;16.08;7.85;;;;;;;;;;5063373;28;20017;-78
2024/01/19 03:35:28;;;;;;;11.68;5.13;;;;;;;;;;5059918;28;20040;-78
2024/01/19 03:37:53;;;;;;;11.35;5.68;;;;;;;;;;5058535;28;20040;-78
2024/01/19 03:40:18;;;;;;;12.45;6.05;;;;;;;;;;5059752;28;20153;-79
2024/01/19 03:42:44;;;;;;;10.77;5.80;;;;;;;;;;5059489;28;20061;-78
2024/01/19 03:45:09;;;;;;;9.73;5.45;;;;;;;;;;5055071;28;20048;-77
2024/01/19 03:47:34;;;;;;;10.52;5.43;;;;;;;;;;4958105;28;20116;-78
2024/01/19 03:50:01;;;;;;;10.88;5.32;;;;;;;;;;5048377;28;20075;-78
2024/01/19 03:52:26;;;;;;;13.07;5.60;;;;;;;;;;5059283;28;20033;-78
2024/01/19 03:54:52;;;;;;;11.73;5.18;;;;;;;;;;5058967;28;20032;-78
2024/01/19 03:57:17;;;;;;;5.20;3.65;;;;;;;;;;5058996;28;20021;-78
2024/01/19 03:59:42;;;;;;;9.75;5.15;;;;;;;;;;5058586;28;20112;-78
2024/01/19 04:02:08;;;;;;;10.52;4.75;;;;;;;;;;5059296;28;20032;-77
2024/01/19 04:04:33;;;;;;;7.05;4.78;;;;;;;;;;5053864;28;20036;-78
2024/01/19 04:06:59;;;;;;;6.00;4.13;;;;;;;;;;5058509;28;20033;-78
2024/01/19 04:09:24;;;;;;;5.53;4.15;;;;;;;;;;5059590;28;20044;-78
2024/01/19 04:11:49;;;;;;;6.68;4.40;;;;;;;;;;5058675;28;20028;-78
2024/01/19 04:14:15;;;;;;;8.02;4.90;;;;;;;;;;5027271;28;20039;-78
2024/01/19 04:16:41;;;;;;;10.07;4.97;;;;;;;;;;5057184;28;20060;-78
2024/01/19 04:19:07;;;;;;;15.25;6.60;;;;;;;;;;5057255;28;20115;-77
2024/01/19 04:21:32;;;;;;;11.65;6.03;;;;;;;;;;5056924;28;20120;-78
2024/01/19 04:23:58;;;;;;;13.73;6.65;;;;;;;;;;5058938;28;20521;-78
2024/01/19 04:26:24;;;;;;;9.75;5.03;;;;;;;;;;5057313;28;20049;-77
2024/01/19 04:28:50;;;;;;;9.45;5.38;;;;;;;;;;5055977;28;20040;-77
2024/01/19 04:31:15;;;;;;;13.45;5.53;;;;;;;;;;5018003;28;20040;-78
2024/01/19 04:33:40;;;;;;;9.55;4.88;;;;;;;;;;5057411;28;20083;-78
2024/01/19 04:36:07;;;;;;;11.00;5.35;;;;;;;;;;5057039;28;20029;-78
2024/01/19 04:38:32;;;;;;;12.77;5.63;;;;;;;;;;5057206;28;20521;-78
2024/01/19 04:40:57;;;;;;;10.98;5.95;;;;;;;;;;5056450;28;20044;-77
2024/01/19 04:43:22;;;;;;;9.63;6.10;;;;;;;;;;5056270;28;20039;-78
2024/01/19 04:45:48;;;;;;;10.63;5.43;;;;;;;;;;5057538;28;20032;-77
2024/01/19 04:48:13;;;;;;;10.30;5.28;;;;;;;;;;5059095;28;20490;-78
2024/01/19 04:50:38;;;;;;;12.20;6.10;;;;;;;;;;5057892;28;20083;-78
2024/01/19 04:53:04;;;;;;;10.43;5.55;;;;;;;;;;5058166;28;20493;-77
2024/01/19 04:55:30;;;;;;;16.08;5.50;;;;;;;;;;5057943;28;20583;-78
2024/01/19 04:57:55;;;;;;;9.38;5.50;;;;;;;;;;5058077;28;20029;-78
2024/01/19 05:00:22;;;;;;;12.43;6.03;;;;;;;;;;5056553;28;20558;-78
2024/01/19 05:02:48;;;;;;;21.00;6.10;;;;;;;;;;5058281;28;20029;-79
2024/01/19 05:05:13;;;;;;;9.00;4.78;;;;;;;;;;5059611;28;20037;-78
2024/01/19 05:07:39;;;;;;;9.07;5.65;;;;;;;;;;5058481;28;20052;-78
2024/01/19 05:10:05;;;;;;;18.35;7.22;;;;;;;;;;5058533;28;20589;-77
2024/01/19 05:12:31;;;;;;;17.38;6.97;;;;;;;;;;5058652;28;20033;-78
2024/01/19 05:14:56;;;;;;;13.80;5.80;;;;;;;;;;5057529;28;20036;-78
2024/01/19 05:17:22;;;;;;;18.50;6.38;;;;;;;;;;5057418;28;20036;-78
2024/01/19 05:19:47;;;;;;;8.60;5.53;;;;;;;;;;5057516;28;20117;-78
2024/01/19 05:22:13;;;;;;;10.20;5.30;;;;;;;;;;5057808;28;20033;-79
2024/01/19 05:24:43;;;;;;;16.33;7.28;;;;;;;;;;5057870;28;20115;-78
2024/01/19 05:27:08;;;;;;;15.32;6.10;;;;;;;;;;5057913;28;20037;-78
2024/01/19 05:29:34;;;;;;;15.73;6.55;;;;;;;;;;5056536;28;20124;-78
2024/01/19 05:32:00;;;;;;;16.25;6.28;;;;;;;;;;5039553;28;20060;-78
2024/01/19 05:34:26;;;;;;;10.93;7.05;;;;;;;;;;5055943;28;20036;-78
2024/01/19 05:36:51;;;;;;;73.18;10.40;;;;;;;;;;5058451;28;20076;-78
2024/01/19 05:39:17;;;;;;;32.83;12.98;;;;;;;;;;5058345;28;20037;-78
2024/01/19 05:41:42;;;;;;;18.65;8.20;;;;;;;;;;5057641;28;20091;-77
2024/01/19 05:44:07;;;;;;;19.10;9.45;;;;;;;;;;5057095;28;20041;-78
2024/01/19 05:46:32;;;;;;;11.90;6.15;;;;;;;;;;5057921;28;20053;-78
2024/01/19 05:48:58;;;;;;;14.65;6.90;;;;;;;;;;5058714;28;20120;-79
2024/01/19 05:51:23;;;;;;;22.27;8.55;;;;;;;;;;5057687;28;20060;-78
2024/01/19 05:53:48;;;;;;;29.27;6.85;;;;;;;;;;5058833;28;20405;-77
2024/01/19 05:56:14;;;;;;;36.53;9.70;;;;;;;;;;5061331;28;20029;-78
2024/01/19 05:58:39;;;;;;;13.48;6.70;;;;;;;;;;5060416;28;20037;-78
2024/01/19 06:01:05;;;;;;;12.95;7.28;;;;;;;;;;5061417;28;20029;-78
2024/01/19 06:03:33;;;;;;;20.77;10.30;;;;;;;;;;5058861;28;20098;-78
2024/01/19 06:06:00;;;;;;;22.27;8.77;;;;;;;;;;5060681;28;20452;-78
2024/01/19 06:08:25;;;;;;;17.45;7.60;;;;;;;;;;5060355;28;20041;-77
2024/01/19 06:10:50;;;;;;;15.02;8.07;;;;;;;;;;5060876;28;20037;-77
2024/01/19 06:13:15;;;;;;;22.77;9.18;;;;;;;;;;5058189;28;20037;-78
2024/01/19 06:15:41;;;;;;;18.48;9.35;;;;;;;;;;5059181;28;20040;-78
2024/01/19 06:18:06;;;;;;;27.45;11.43;;;;;;;;;;5060923;28;20040;-78
2024/01/19 06:20:33;;;;;;;54.63;12.23;;;;;;;;;;5061862;28;20095;-78
2024/01/19 06:22:58;;;;;;;30.70;10.07;;;;;;;;;;5061045;28;20045;-78
2024/01/19 06:25:23;;;;;;;30.73;9.90;;;;;;;;;;5062117;28;20106;-78
2024/01/19 06:27:48;;;;;;;18.08;7.18;;;;;;;;;;5061334;28;20100;-77
2024/01/19 06:30:14;;;;;;;19.17;5.30;;;;;;;;;;5054677;28;20033;-77
2024/01/19 06:32:39;;;;;;;10.52;5.25;;;;;;;;;;5056033;28;20128;-77
2024/01/19 06:35:05;;;;;;;11.38;4.30;;;;;;;;;;5056302;28;20127;-77
2024/01/19 06:37:30;;;;;;;19.55;6.22;;;;;;;;;;5055008;28;20094;-77
2024/01/19 06:39:55;;;;;;;20.83;7.72;;;;;;;;;;5054411;28;20056;-77
2024/01/19 06:42:21;;;;;;;20.30;8.15;;;;;;;;;;5054011;28;20155;-77
2024/01/19 06:44:46;;;;;;;18.38;7.57;;;;;;;;;;5052629;28;20036;-76
2024/01/19 06:47:11;;;;;;;22.35;8.63;;;;;;;;;;5050783;28;20049;-77
2024/01/19 06:49:37;;;;;;;15.43;7.97;;;;;;;;;;5050813;28;20053;-78
2024/01/19 06:52:05;;;;;;;13.90;7.05;;;;;;;;;;5056319;28;20042;-77
2024/01/19 06:54:32;;;;;;;20.25;8.73;;;;;;;;;;5051795;28;20049;-77
2024/01/19 06:56:57;;;;;;;26.77;11.57;;;;;;;;;;5070671;28;20063;-77
2024/01/19 06:59:23;;;;;;;26.52;12.52;;;;;;;;;;5058773;28;20063;-77
2024/01/19 07:01:48;;;;;;;34.60;11.13;;;;;;;;;;5056566;28;20039;-77
2024/01/19 07:04:13;;;;;;;16.17;8.32;;;;;;;;;;5055496;28;20124;-78
2024/01/19 07:06:39;;;;;;;14.90;7.95;;;;;;;;;;5051664;28;20037;-77
2024/01/19 07:09:04;;;;;;;11.90;6.15;;;;;;;;;;5052188;28;20413;-80
2024/01/19 07:11:30;;;;;;;6.50;3.78;;;;;;;;;;5054744;28;20520;-77
2024/01/19 07:13:55;;;;;;;6.80;4.18;;;;;;;;;;5053304;28;20037;-77
2024/01/19 07:16:21;;;;;;;6.95;4.32;;;;;;;;;;5051985;28;20520;-78
2024/01/19 07:18:47;;;;;;;11.38;3.85;;;;;;;;;;5051281;28;20044;-77
2024/01/19 07:21:12;;;;;;;6.40;3.78;;;;;;;;;;5055547;28;20029;-78
2024/01/19 07:23:37;;;;;;;9.10;5.05;;;;;;;;;;5052406;28;20035;-78
2024/01/19 07:26:03;;;;;;;9.50;4.90;;;;;;;;;;5057279;28;20037;-77
2024/01/19 07:28:29;;;;;;;11.77;5.35;;;;;;;;;;5067710;28;20036;-79
2024/01/19 07:30:54;;;;;;;16.33;6.32;;;;;;;;;;5065542;28;20093;-79
2024/01/19 07:33:19;;;;;;;10.30;5.53;;;;;;;;;;5057990;28;20171;-78
2024/01/19 07:35:45;;;;;;;22.38;7.00;;;;;;;;;;5059721;28;20040;-78
2024/01/19 07:38:10;;;;;;;17.58;7.63;;;;;;;;;;5058569;28;20041;-77
2024/01/19 07:40:36;;;;;;;14.65;6.80;;;;;;;;;;5056878;28;20043;-78
2024/01/19 07:43:02;;;;;;;9.55;5.82;;;;;;;;;;5055978;28;20028;-78
2024/01/19 07:45:27;;;;;;;15.90;7.53;;;;;;;;;;5056111;28;20512;-77
2024/01/19 07:47:53;;;;;;;13.95;6.15;;;;;;;;;;5056258;28;20413;-78
2024/01/19 07:50:18;;;;;;;25.50;9.18;;;;;;;;;;5018076;28;20035;-78
2024/01/19 07:52:43;;;;;;;13.88;7.18;;;;;;;;;;5056958;28;20129;-78
2024/01/19 07:55:09;;;;;;;15.45;5.90;;;;;;;;;;5057581;28;20036;-78
2024/01/19 07:57:34;;;;;;;10.52;5.53;;;;;;;;;;5056726;28;20059;-78
2024/01/19 07:59:59;;;;;;;13.77;5.05;;;;;;;;;;5057506;28;20041;-77
2024/01/19 08:02:25;;;;;;;10.98;5.43;;;;;;;;;;5058203;28;20039;-78
2024/01/19 08:04:50;;;;;;;5.97;4.03;;;;;;;;;;5056101;28;20048;-78
2024/01/19 08:07:15;;;;;;;12.80;4.45;;;;;;;;;;5058234;28;21407;-79
2024/01/19 08:09:41;;;;;;;6.85;4.55;;;;;;;;;;5058422;28;20037;-78
2024/01/19 08:12:06;;;;;;;9.18;4.80;;;;;;;;;;5051300;28;20586;-78
2024/01/19 08:14:32;;;;;;;6.10;3.83;;;;;;;;;;5051377;28;20629;-78
2024/01/19 08:16:57;;;;;;;6.65;3.80;;;;;;;;;;5055504;28;20045;-77
2024/01/19 08:19:23;;;;;;;5.65;3.42;;;;;;;;;;5056335;28;20187;-78
2024/01/19 08:21:48;;;;;;;9.02;3.35;;;;;;;;;;5039552;28;20041;-78
2024/01/19 08:24:13;;;;;;;8.02;3.97;;;;;;;;;;5056355;28;20037;-78
2024/01/19 08:26:39;;;;;;;7.68;4.40;;;;;;;;;;5055770;28;20456;-78
2024/01/19 08:29:04;;;;;;;8.20;4.53;;;;;;;;;;5057316;28;20064;-77
2024/01/19 08:31:32;;;;;;;7.97;4.35;;;;;;;;;;5057428;28;20036;-78
2024/01/19 08:33:57;;;;;;;7.40;4.78;;;;;;;;;;5057361;28;20047;-78
2024/01/19 08:36:24;;;;;;;5.40;4.05;;;;;;;;;;5057235;28;20041;-78
2024/01/19 08:38:53;;;;;;;7.40;4.57;;;;;;;;;;5058914;28;20045;-78
2024/01/19 08:41:18;;;;;;;6.97;3.67;;;;;;;;;;5038824;28;20040;-78
2024/01/19 08:43:44;;;;;;;11.30;5.38;;;;;;;;;;5057250;28;20422;-77
2024/01/19 08:46:09;;;;;;;10.68;5.18;;;;;;;;;;5057440;28;20037;-78
2024/01/19 08:48:34;;;;;;;10.38;4.57;;;;;;;;;;5057831;28;20039;-78
2024/01/19 08:51:01;;;;;;;9.85;3.88;;;;;;;;;;5058362;28;20204;-77
2024/01/19 08:53:27;;;;;;;8.95;5.05;;;;;;;;;;5040789;28;20102;-78
2024/01/19 08:55:52;;;;;;;7.53;4.90;;;;;;;;;;5057346;28;20041;-77
2024/01/19 08:58:18;;;;;;;10.88;5.68;;;;;;;;;;5057324;28;20048;-79
2024/01/19 09:00:43;;;;;;;12.05;7.05;;;;;;;;;;5050170;28;20044;-79
2024/01/19 09:03:08;;;;;;;10.55;6.22;;;;;;;;;;5053300;28;20033;-78
2024/01/19 09:05:34;;;;;;;8.52;3.97;;;;;;;;;;5066338;28;20066;-78
2024/01/19 09:08:00;;;;;;;6.75;4.78;;;;;;;;;;5060000;28;20049;-78
2024/01/19 09:10:25;;;;;;;11.98;5.07;;;;;;;;;;5058434;28;20029;-77
2024/01/19 09:12:51;;;;;;;6.88;4.68;;;;;;;;;;5057169;28;20073;-77
2024/01/19 09:15:16;;;;;;;5.50;3.88;;;;;;;;;;5066693;28;20064;-77
2024/01/19 09:17:42;;;;;;;5.75;3.97;;;;;;;;;;5058398;28;20044;-78
2024/01/19 09:20:07;;;;;;;10.98;4.63;;;;;;;;;;5058110;28;20163;-78
2024/01/19 09:22:33;;;;;;;7.95;4.25;;;;;;;;;;5055630;28;20040;-78
2024/01/19 09:24:58;;;;;;;10.85;5.07;;;;;;;;;;5055481;28;20039;-78
2024/01/19 09:27:23;;;;;;;11.30;5.30;;;;;;;;;;5058027;28;20070;-78
2024/01/19 09:29:48;;;;;;;10.98;4.75;;;;;;;;;;5060806;28;20440;-78
2024/01/19 09:32:16;;;;;;;8.80;4.57;;;;;;;;;;5061120;28;20021;-78
2024/01/19 09:34:43;;;;;;;11.48;6.55;;;;;;;;;;5062838;28;20060;-78
2024/01/19 09:37:08;;;;;;;9.07;5.40;;;;;;;;;;5063031;28;20502;-77
2024/01/19 09:39:34;;;;;;;15.63;6.13;;;;;;;;;;5061364;28;20069;-78
2024/01/19 09:42:06;;;;;;;10.35;5.70;;;;;;;;;;5060961;28;20106;-78
2024/01/19 09:44:36;;;;;;;10.68;6.25;;;;;;;;;;5056230;28;20147;-78
2024/01/19 09:47:17;;;;;;;10.27;5.90;;;;;;;;;;5059672;28;20029;-76
2024/01/19 09:49:55;;;;;;;8.02;5.22;;;;;;;;;;5054965;28;20033;-79
2024/01/19 09:52:45;;;;;;;11.38;5.72;;;;;;;;;;5058410;28;20055;-78
2024/01/19 09:55:11;;;;;;;7.20;4.40;;;;;;;;;;5060694;28;20156;-78
2024/01/19 09:57:45;;;;;;;8.77;5.18;;;;;;;;;;5060853;28;20090;-77
2024/01/19 10:00:12;;;;;;;9.32;5.68;;;;;;;;;;5057130;28;20059;-78
2024/01/19 10:02:42;;;;;;;8.02;5.55;;;;;;;;;;5034165;28;20100;-76
2024/01/19 10:05:08;;;;;;;12.10;5.80;;;;;;;;;;5062715;28;20033;-77
2024/01/19 10:07:34;;;;;;;10.35;4.93;;;;;;;;;;5060195;28;20017;-82
2024/01/19 10:09:59;;;;;;;8.25;3.90;;;;;;;;;;5068475;28;20509;-81
2024/01/19 10:12:25;;;;;;;6.75;4.68;;;;;;;;;;5070131;28;20055;-82
2024/01/19 10:14:51;;;;;;;8.20;5.03;;;;;;;;;;5056771;28;20041;-81
2024/01/19 10:17:17;;;;;;;4.10;3.60;;;;;;;;;;5056499;28;20035;-80
2024/01/19 10:19:43;;;;;;;9.90;4.38;;;;;;;;;;5055421;28;20045;-81
2024/01/19 10:22:27;;;;;;;6.50;5.07;;;;;;;;;;5056950;28;20049;-80
2024/01/19 10:25:03;;;;;;;9.43;5.78;;;;;;;;;;5053360;28;20040;-81
2024/01/19 10:27:41;;;;;;;11.43;6.65;;;;;;;;;;5057136;28;20044;-81
2024/01/19 10:30:12;;;;;;;6.80;4.82;;;;;;;;;;5056131;28;20033;-81
2024/01/19 10:32:39;;;;;;;11.07;4.97;;;;;;;;;;5057491;28;20033;-80
2024/01/19 10:35:10;;;;;;;17.98;5.10;;;;;;;;;;5056704;28;20045;-81
2024/01/19 10:37:36;;;;;;;6.45;4.32;;;;;;;;;;5052893;28;20056;-81
2024/01/19 10:40:19;;;;;;;13.60;5.47;;;;;;;;;;5052336;28;20041;-81
2024/01/19 10:42:46;;;;;;;9.68;4.80;;;;;;;;;;5049706;28;20033;-81
2024/01/19 10:45:21;;;;;;;9.88;5.10;;;;;;;;;;5054509;28;20043;-82
2024/01/19 10:47:50;;;;;;;10.27;4.75;;;;;;;;;;5056359;28;20428;-81
2024/01/19 10:50:17;;;;;;;7.50;4.07;;;;;;;;;;5055510;28;20043;-82
2024/01/19 10:52:48;;;;;;;10.07;4.55;;;;;;;;;;5054932;28;20048;-82
2024/01/19 10:55:24;;;;;;;7.97;4.70;;;;;;;;;;5055164;28;20041;-80
2024/01/19 10:57:52;;;;;;;12.63;5.25;;;;;;;;;;5023545;28;20134;-80
2024/01/19 11:00:22;;;;;;;10.63;4.40;;;;;;;;;;5054718;28;20044;-81
2024/01/19 11:02:50;;;;;;;7.03;4.28;;;;;;;;;;5055757;28;20033;-81
2024/01/19 11:05:19;;;;;;;8.90;4.47;;;;;;;;;;5054163;28;20029;-81
2024/01/19 11:07:45;;;;;;;8.95;4.82;;;;;;;;;;5055471;28;20033;-81
2024/01/19 11:10:10;;;;;;;11.13;4.60;;;;;;;;;;5052755;28;20044;-82
2024/01/19 11:12:39;;;;;;;7.60;4.22;;;;;;;;;;5055297;28;20037;-80
2024/01/19 11:15:08;;;;;;;7.85;3.75;;;;;;;;;;5055240;28;20078;-81
2024/01/19 11:17:34;;;;;;;7.38;3.90;;;;;;;;;;5064352;28;20052;-78
2024/01/19 11:19:59;;;;;;;14.88;4.15;;;;;;;;;;5057118;28;20044;-79
2024/01/19 11:22:26;;;;;;;12.13;4.40;;;;;;;;;;5019297;28;20091;-79
2024/01/19 11:24:56;;;;;;;8.68;4.13;;;;;;;;;;5058440;28;20032;-79
2024/01/19 11:27:30;;;;;;;6.45;4.32;;;;;;;;;;5039032;28;20205;-79
2024/01/19 11:30:13;;;;;;;5.45;3.90;;;;;;;;;;5058616;28;20044;-79
2024/01/19 11:32:39;;;;;;;5.83;4.13;;;;;;;;;;5057639;28;20068;-79
2024/01/19 11:35:04;;;;;;;7.82;4.22;;;;;;;;;;5057200;28;20052;-79
2024/01/19 11:37:44;;;;;;;9.60;4.45;;;;;;;;;;5038267;28;20036;-78
2024/01/19 11:40:29;;;;;;;15.85;4.55;;;;;;;;;;4997047;28;20039;-79
2024/01/19 11:42:55;;;;;;;5.80;4.32;;;;;;;;;;5021916;28;20041;-79
2024/01/19 11:45:40;;;;;;;6.85;4.60;;;;;;;;;;5053144;28;20124;-79
2024/01/19 11:48:07;;;;;;;13.52;6.10;;;;;;;;;;5054016;28;20037;-78
2024/01/19 11:50:46;;;;;;;15.18;5.43;;;;;;;;;;5055700;28;20047;-78
2024/01/19 11:53:13;;;;;;;18.13;6.38;;;;;;;;;;5054938;28;20047;-77
2024/01/19 11:55:40;;;;;;;13.25;6.55;;;;;;;;;;5050982;28;20386;-79
2024/01/19 11:58:24;;;;;;;13.57;7.72;;;;;;;;;;5055793;28;20086;-79
2024/01/19 12:00:56;;;;;;;13.63;7.53;;;;;;;;;;5056078;28;20029;-77
2024/01/19 12:03:22;;;;;;;13.45;7.45;;;;;;;;;;5047981;28;20128;-78
2024/01/19 12:05:49;;;;;;;13.00;6.47;;;;;;;;;;5057439;28;20593;-78
2024/01/19 12:08:14;;;;;;;13.45;6.75;;;;;;;;;;5054789;28;20055;-79
2024/01/19 12:10:42;;;;;;;18.80;7.85;;;;;;;;;;5055155;28;20029;-79
2024/01/19 12:13:08;;;;;;;17.33;7.25;;;;;;;;;;5055291;28;20051;-79
2024/01/19 12:15:33;;;;;;;10.93;6.57;;;;;;;;;;5056226;28;20485;-79
2024/01/19 12:18:02;;;;;;;19.17;6.63;;;;;;;;;;5057477;28;20040;-79
2024/01/19 12:20:29;;;;;;;13.13;7.78;;;;;;;;;;5054534;28;20513;-79
2024/01/19 12:22:57;;;;;;;13.30;7.38;;;;;;;;;;5054232;28;20053;-79
2024/01/19 12:25:24;;;;;;;12.15;7.05;;;;;;;;;;5056804;28;20095;-78
2024/01/19 12:28:00;;;;;;;12.00;8.02;;;;;;;;;;5046152;28;20151;-78
2024/01/19 12:30:25;;;;;;;27.20;7.40;;;;;;;;;;5055552;28;20058;-78
2024/01/19 12:32:50;;;;;;;15.15;8.43;;;;;;;;;;5054438;28;20087;-78
2024/01/19 12:35:19;;;;;;;18.27;8.60;;;;;;;;;;5053301;28;20124;-77
2024/01/19 12:37:44;;;;;;;12.57;6.32;;;;;;;;;;5052102;28;20446;-78
2024/01/19 12:40:18;;;;;;;8.35;4.47;;;;;;;;;;5054421;28;20128;-79
2024/01/19 12:42:43;;;;;;;8.93;4.35;;;;;;;;;;5055717;28;20072;-79
2024/01/19 12:45:17;;;;;;;4.45;3.05;;;;;;;;;;5055719;28;20083;-80
2024/01/19 12:47:46;;;;;;;4.65;2.80;;;;;;;;;;5052253;28;20033;-78
2024/01/19 12:50:12;;;;;;;8.45;2.65;;;;;;;;;;5050767;28;20071;-79
2024/01/19 12:52:37;;;;;;;2.22;2.13;;;;;;;;;;5049754;28;20072;-77
2024/01/19 12:55:03;;;;;;;4.53;2.30;;;;;;;;;;5048040;28;20037;-76
2024/01/19 12:57:30;;;;;;;7.22;3.22;;;;;;;;;;5050669;28;20059;-77
2024/01/19 13:00:10;;;;;;;3.58;2.35;;;;;;;;;;5049703;28;20524;-78
2024/01/19 13:02:36;;;;;;;4.32;3.22;;;;;;;;;;5053771;28;20081;-78
2024/01/19 13:05:02;;;;;;;4.47;2.80;;;;;;;;;;5056053;28;20048;-78
2024/01/19 13:07:27;;;;;;;4.68;3.17;;;;;;;;;;5055890;28;20037;-77
2024/01/19 13:10:03;;;;;;;6.63;3.83;;;;;;;;;;5055798;28;20044;-77
2024/01/19 13:12:29;;;;;;;12.98;6.80;;;;;;;;;;5052817;28;20033;-77
2024/01/19 13:15:03;;;;;;;6.50;3.88;;;;;;;;;;5055930;28;20128;-78
2024/01/19 13:17:28;;;;;;;4.90;3.67;;;;;;;;;;5057779;28;20584;-78
2024/01/19 13:19:54;;;;;;;10.45;4.15;;;;;;;;;;5054467;28;20029;-77
2024/01/19 13:22:19;;;;;;;8.68;4.65;;;;;;;;;;5056771;28;20115;-77
2024/01/19 13:24:46;;;;;;;7.18;4.00;;;;;;;;;;5055592;28;20416;-77
2024/01/19 13:27:11;;;;;;;3.70;3.17;;;;;;;;;;5055470;28;20037;-79
2024/01/19 13:29:37;;;;;;;6.88;4.25;;;;;;;;;;5054081;28;20090;-77
2024/01/19 13:32:02;;;;;;;15.73;5.97;;;;;;;;;;5059241;28;20377;-78
2024/01/19 13:34:28;;;;;;;12.85;6.93;;;;;;;;;;5058182;28;20033;-77
2024/01/19 13:36:53;;;;;;;21.98;8.60;;;;;;;;;;5056518;28;20029;-78
2024/01/19 13:39:18;;;;;;;11.43;5.88;;;;;;;;;;5058094;28;20040;-77
2024/01/19 13:41:44;;;;;;;16.25;5.68;;;;;;;;;;5054993;28;20046;-77
2024/01/19 13:44:09;;;;;;;8.40;5.05;;;;;;;;;;5055741;28;20040;-78
2024/01/19 13:46:35;;;;;;;6.30;4.28;;;;;;;;;;5054921;28;20041;-78
2024/01/19 13:49:00;;;;;;;6.13;4.07;;;;;;;;;;5056381;28;20048;-77
2024/01/19 13:51:25;;;;;;;4.30;3.78;;;;;;;;;;5054113;28;20052;-78
2024/01/19 13:53:51;;;;;;;6.88;4.03;;;;;;;;;;5056742;28;20124;-78
2024/01/19 13:56:16;;;;;;;22.88;4.97;;;;;;;;;;5053136;28;20036;-77
2024/01/19 13:58:42;;;;;;;40.13;5.45;;;;;;;;;;5057183;28;20087;-79
2024/01/19 14:01:08;;;;;;;6.03;4.43;;;;;;;;;;5056033;28;20025;-76
2024/01/19 14:03:34;;;;;;;5.32;4.38;;;;;;;;;;5036306;28;20039;-77
2024/01/19 14:06:00;;;;;;;4.88;3.75;;;;;;;;;;5053839;28;20033;-78
2024/01/19 14:08:25;;;;;;;10.55;4.60;;;;;;;;;;5058131;28;20078;-78
2024/01/19 14:10:51;;;;;;;7.20;4.32;;;;;;;;;;5057643;28;20170;-78
2024/01/19 14:13:17;;;;;;;8.82;4.28;;;;;;;;;;5057012;28;20036;-77
2024/01/19 14:15:47;;;;;;;8.88;4.88;;;;;;;;;;5032200;28;20492;-79
2024/01/19 14:18:12;;;;;;;7.82;4.72;;;;;;;;;;5045718;28;20095;-78
2024/01/19 14:20:38;;;;;;;11.77;4.38;;;;;;;;;;5059166;28;20040;-78
2024/01/19 14:23:03;;;;;;;7.63;4.40;;;;;;;;;;5060890;28;20036;-78
2024/01/19 14:25:30;;;;;;;7.03;4.80;;;;;;;;;;5056636;28;20041;-77
2024/01/19 14:27:55;;;;;;;12.43;5.95;;;;;;;;;;5057848;28;20029;-78
2024/01/19 14:30:21;;;;;;;6.20;4.63;;;;;;;;;;5041007;28;20190;-78
2024/01/19 14:32:48;;;;;;;11.35;4.93;;;;;;;;;;5054174;28;20451;-77